createdAt,value
2017-12-25T00:01:58.986Z,78.98
2017-12-25T00:04:28.773Z,79.20
2017-12-25T00:06:59.469Z,79.25
2017-12-25T00:09:28.449Z,79.39
2017-12-25T00:11:57.348Z,79.17
2017-12-25T00:17:01.071Z,78.96
2017-12-25T00:19:30.010Z,78.99
2017-12-25T00:22:01.046Z,79.07
2017-12-25T00:24:31.883Z,78.81
2017-12-25T00:27:01.082Z,78.68
2017-12-25T00:29:31.240Z,78.63
2017-12-25T00:32:01.322Z,78.83
2017-12-25T00:34:30.211Z,78.61
2017-12-25T00:36:59.554Z,78.53
2017-12-25T00:39:28.666Z,78.55
2017-12-25T00:41:58.665Z,78.61
2017-12-25T00:44:29.308Z,78.53
2017-12-25T00:46:58.350Z,78.29
2017-12-25T00:49:29.067Z,78.21
2017-12-25T00:51:58.003Z,78.48
2017-12-25T00:54:27.040Z,78.67
2017-12-25T00:56:57.789Z,78.54
2017-12-25T01:02:02.422Z,78.87
2017-12-25T01:04:31.622Z,78.99
2017-12-25T01:07:03.138Z,78.85
2017-12-25T01:09:32.937Z,79.05
2017-12-25T01:12:02.767Z,79.35
2017-12-25T01:14:31.797Z,79.39
2017-12-25T01:17:02.530Z,79.45
2017-12-25T01:19:31.423Z,79.68
2017-12-25T01:22:02.326Z,80.41
2017-12-25T01:24:31.217Z,80.85
2017-12-25T01:27:01.132Z,80.90
2017-12-25T01:29:31.081Z,80.83
2017-12-25T01:32:00.042Z,80.78
2017-12-25T01:34:30.262Z,80.66
2017-12-25T01:37:00.055Z,80.62
2017-12-25T01:39:29.074Z,80.55
2017-12-25T01:41:59.026Z,80.57
2017-12-25T01:44:28.883Z,80.66
2017-12-25T01:47:07.013Z,80.51
2017-12-25T01:49:36.111Z,80.31
2017-12-25T01:52:05.817Z,80.10
2017-12-25T01:54:36.289Z,80.08
2017-12-25T02:00:22.257Z,80.13
2017-12-25T02:02:51.921Z,80.12
2017-12-25T02:05:49.224Z,80.06
2017-12-25T02:11:17.831Z,80.05
2017-12-25T02:13:46.751Z,80.30
2017-12-25T02:16:15.502Z,80.60
2017-12-25T02:18:46.994Z,80.93
2017-12-25T02:21:16.977Z,80.86
2017-12-25T02:23:45.919Z,80.51
2017-12-25T02:26:16.689Z,80.37
2017-12-25T02:28:45.734Z,80.21
2017-12-25T02:31:15.571Z,80.16
2017-12-25T02:33:48.089Z,79.92
2017-12-25T02:36:18.218Z,79.98
2017-12-25T02:38:47.957Z,79.67
2017-12-25T02:43:50.704Z,79.73
2017-12-25T02:46:20.637Z,79.72
2017-12-25T02:48:49.732Z,79.39
2017-12-25T02:51:20.396Z,79.27
2017-12-25T02:53:49.497Z,78.93
2017-12-25T02:56:19.475Z,78.56
2017-12-25T02:58:48.571Z,78.63
2017-12-25T03:01:17.566Z,78.51
2017-12-25T03:03:50.246Z,78.39
2017-12-25T03:06:19.236Z,77.97
2017-12-25T03:08:48.350Z,78.04
2017-12-25T03:11:17.258Z,78.17
2017-12-25T03:13:46.313Z,77.92
2017-12-25T03:16:15.562Z,78.15
2017-12-25T03:18:47.465Z,78.29
2017-12-25T03:21:16.308Z,78.19
2017-12-25T03:23:45.474Z,78.68
2017-12-25T03:26:17.149Z,78.99
2017-12-25T03:28:46.957Z,78.99
2017-12-25T03:31:15.944Z,79.08
2017-12-25T03:33:46.704Z,79.21
2017-12-25T03:36:16.892Z,79.16
2017-12-25T03:38:45.846Z,79.76
2017-12-25T03:43:51.782Z,79.88
2017-12-25T03:46:20.691Z,79.97
2017-12-25T03:48:50.623Z,79.83
2017-12-25T03:51:19.577Z,79.74
2017-12-25T03:53:48.573Z,79.51
2017-12-25T03:56:17.718Z,79.57
2017-12-25T03:58:46.770Z,80.03
2017-12-25T04:01:19.399Z,80.42
2017-12-25T04:03:49.261Z,80.36
2017-12-25T04:06:18.505Z,80.18
2017-12-25T04:08:50.106Z,79.87
2017-12-25T04:11:19.208Z,79.86
2017-12-25T04:13:48.193Z,79.65
2017-12-25T04:16:17.194Z,79.73
2017-12-25T04:18:47.859Z,79.67
2017-12-25T04:21:16.826Z,79.68
2017-12-25T04:23:46.942Z,79.83
2017-12-25T04:26:16.912Z,80.16
2017-12-25T04:28:45.849Z,80.09
2017-12-25T04:31:16.590Z,79.91
2017-12-25T04:33:45.673Z,79.55
2017-12-25T04:36:14.674Z,79.44
2017-12-25T04:38:46.331Z,79.14
2017-12-25T04:41:17.960Z,79.22
2017-12-25T04:43:49.714Z,79.26
2017-12-25T04:46:18.669Z,79.26
2017-12-25T04:48:49.933Z,79.12
2017-12-25T04:51:19.700Z,79.34
2017-12-25T04:53:49.451Z,79.18
2017-12-25T04:56:18.401Z,79.32
2017-12-25T04:58:47.638Z,79.04
2017-12-25T05:01:16.538Z,78.96
2017-12-25T05:03:46.510Z,78.98
2017-12-25T05:06:17.509Z,79.04
2017-12-25T05:08:47.507Z,78.80
2017-12-25T05:11:16.433Z,78.81
2017-12-25T05:13:46.416Z,78.53
2017-12-25T05:16:15.410Z,78.26
2017-12-25T05:18:44.409Z,78.03
2017-12-25T05:21:15.781Z,78.04
2017-12-25T05:23:44.910Z,77.99
2017-12-25T05:26:13.889Z,77.74
2017-12-25T05:28:42.910Z,77.79
2017-12-25T05:31:12.605Z,77.49
2017-12-25T05:33:42.315Z,77.34
2017-12-25T05:36:12.444Z,77.28
2017-12-25T05:38:42.161Z,77.46
2017-12-25T05:41:11.185Z,77.40
2017-12-25T05:43:42.134Z,77.40
2017-12-25T05:46:12.489Z,77.22
2017-12-25T05:48:41.438Z,76.90
2017-12-25T05:53:44.803Z,76.69
2017-12-25T05:56:14.012Z,76.67
2017-12-25T05:58:44.747Z,76.61
2017-12-25T06:01:13.771Z,76.34
2017-12-25T06:03:43.772Z,76.15
2017-12-25T06:06:13.865Z,75.83
2017-12-25T06:08:43.341Z,75.77
2017-12-25T06:11:13.502Z,76.38
2017-12-25T06:13:42.592Z,76.03
2017-12-25T06:16:11.777Z,75.67
2017-12-25T06:18:40.981Z,75.46
2017-12-25T06:21:10.091Z,75.56
2017-12-25T06:23:39.160Z,75.05
2017-12-25T06:26:09.102Z,74.94
2017-12-25T06:28:39.165Z,74.71
2017-12-25T06:31:10.250Z,74.56
2017-12-25T06:33:41.866Z,74.41
2017-12-25T06:36:11.316Z,74.11
2017-12-25T06:38:41.113Z,73.55
2017-12-25T06:41:12.445Z,73.19
2017-12-25T06:43:41.639Z,73.08
2017-12-25T06:46:11.467Z,72.94
2017-12-25T06:48:43.668Z,72.71
2017-12-25T06:51:13.718Z,72.44
2017-12-25T06:53:43.581Z,72.27
2017-12-25T06:56:13.617Z,71.98
2017-12-25T06:58:42.636Z,72.09
2017-12-25T07:01:12.541Z,71.83
2017-12-25T07:03:41.860Z,71.47
2017-12-25T07:06:12.502Z,71.44
2017-12-25T07:08:42.033Z,71.26
2017-12-25T07:13:45.718Z,71.19
2017-12-25T07:16:14.819Z,71.07
2017-12-25T07:18:44.049Z,70.83
2017-12-25T07:21:17.413Z,70.69
2017-12-25T07:23:47.363Z,70.73
2017-12-25T07:26:16.359Z,70.60
2017-12-25T07:28:47.202Z,70.30
2017-12-25T07:31:19.131Z,70.19
2017-12-25T07:33:48.220Z,70.07
2017-12-25T07:36:17.304Z,69.98
2017-12-25T07:38:47.267Z,69.67
2017-12-25T07:41:17.142Z,69.38
2017-12-25T07:43:46.284Z,69.08
2017-12-25T07:46:15.333Z,68.90
2017-12-25T07:48:45.369Z,68.73
2017-12-25T07:51:14.293Z,68.48
2017-12-25T07:53:44.296Z,68.27
2017-12-25T07:56:13.551Z,68.25
2017-12-25T07:58:42.667Z,68.03
2017-12-25T08:01:15.336Z,68.04
2017-12-25T08:03:45.374Z,67.43
2017-12-25T08:06:14.486Z,67.45
2017-12-25T08:08:45.903Z,67.52
2017-12-25T08:11:14.898Z,66.90
2017-12-25T08:13:44.740Z,66.64
2017-12-25T08:18:48.171Z,66.23
2017-12-25T08:21:18.977Z,66.09
2017-12-25T08:23:50.107Z,66.37
2017-12-25T08:26:19.451Z,66.36
2017-12-25T08:28:49.584Z,65.85
2017-12-25T08:31:23.952Z,65.60
2017-12-25T08:33:53.430Z,64.93
2017-12-25T08:36:23.939Z,64.93
2017-12-25T08:38:54.154Z,65.14
2017-12-25T08:41:23.243Z,64.90
2017-12-25T08:43:52.466Z,64.70
2017-12-25T08:46:24.155Z,64.44
2017-12-25T08:48:53.251Z,64.43
2017-12-25T08:51:23.028Z,64.28
2017-12-25T08:53:55.753Z,63.85
2017-12-25T08:56:25.080Z,63.98
2017-12-25T08:58:55.430Z,63.70
2017-12-25T09:01:24.529Z,63.27
2017-12-25T09:03:53.647Z,63.09
2017-12-25T09:06:23.201Z,62.82
2017-12-25T09:08:54.090Z,62.43
2017-12-25T09:11:23.309Z,62.20
2017-12-25T09:13:52.300Z,61.87
2017-12-25T09:16:23.116Z,62.09
2017-12-25T09:18:53.906Z,62.12
2017-12-25T09:21:23.085Z,61.63
2017-12-25T09:23:52.166Z,61.75
2017-12-25T09:26:22.482Z,61.79
2017-12-25T09:28:51.739Z,61.40
2017-12-25T09:31:24.471Z,60.75
2017-12-25T09:33:53.610Z,60.32
2017-12-25T09:36:25.026Z,60.19
2017-12-25T09:41:29.462Z,59.49
2017-12-25T09:44:00.259Z,59.22
2017-12-25T09:46:29.437Z,59.31
2017-12-25T09:48:59.753Z,59.16
2017-12-25T09:51:29.879Z,59.12
2017-12-25T09:54:00.032Z,58.76
2017-12-25T09:56:29.360Z,59.01
2017-12-25T09:58:58.615Z,59.25
2017-12-25T10:01:28.209Z,59.18
2017-12-25T10:03:58.630Z,58.55
2017-12-25T10:06:31.614Z,58.52
2017-12-25T10:09:00.831Z,58.58
2017-12-25T10:11:30.795Z,58.09
2017-12-25T10:13:59.987Z,58.28
2017-12-25T10:16:30.016Z,57.69
2017-12-25T10:18:59.060Z,57.81
2017-12-25T10:21:30.006Z,57.12
2017-12-25T10:23:59.133Z,57.08
2017-12-25T10:26:30.076Z,57.19
2017-12-25T10:29:00.190Z,56.76
2017-12-25T10:31:29.489Z,56.84
2017-12-25T10:33:59.660Z,56.88
2017-12-25T10:36:29.585Z,56.41
2017-12-25T10:38:58.941Z,55.28
2017-12-25T10:41:28.289Z,54.01
2017-12-25T10:43:57.614Z,54.08
2017-12-25T10:46:26.630Z,53.83
2017-12-25T10:48:56.232Z,52.99
2017-12-25T10:51:25.639Z,52.41
2017-12-25T10:53:55.785Z,52.52
2017-12-25T10:56:25.484Z,52.56
2017-12-25T11:01:30.029Z,52.20
2017-12-25T11:04:00.179Z,52.21
2017-12-25T11:06:29.595Z,51.88
2017-12-25T11:08:58.588Z,51.94
2017-12-25T11:11:27.690Z,51.83
2017-12-25T11:13:57.602Z,51.48
2017-12-25T11:16:28.682Z,51.79
2017-12-25T11:18:58.662Z,51.37
2017-12-25T11:21:28.683Z,51.59
2017-12-25T11:23:58.825Z,50.92
2017-12-25T11:26:29.495Z,50.61
2017-12-25T11:28:58.573Z,50.32
2017-12-25T11:31:28.438Z,49.74
2017-12-25T11:33:58.921Z,50.08
2017-12-25T11:36:29.194Z,49.64
2017-12-25T11:38:58.213Z,49.71
2017-12-25T11:41:31.465Z,49.33
2017-12-25T11:44:00.440Z,49.31
2017-12-25T11:46:29.392Z,48.98
2017-12-25T11:49:00.135Z,49.05
2017-12-25T11:51:31.144Z,48.64
2017-12-25T11:54:00.134Z,48.84
2017-12-25T11:59:03.961Z,47.70
2017-12-25T12:01:33.874Z,47.86
2017-12-25T12:04:03.520Z,47.74
2017-12-25T12:06:33.861Z,47.52
2017-12-25T12:09:03.257Z,47.19
2017-12-25T12:11:32.309Z,46.59
2017-12-25T12:14:03.221Z,44.93
2017-12-25T12:16:33.301Z,45.06
2017-12-25T12:19:02.628Z,45.00
2017-12-25T12:21:31.915Z,44.94
2017-12-25T12:24:07.984Z,44.48
2017-12-25T12:26:37.996Z,45.20
2017-12-25T12:29:07.080Z,45.02
2017-12-25T12:31:37.540Z,44.50
2017-12-25T12:34:07.439Z,44.35
2017-12-25T12:36:37.440Z,44.04
2017-12-25T12:39:06.750Z,44.20
2017-12-25T12:41:38.575Z,44.23
2017-12-25T12:44:07.559Z,44.79
2017-12-25T12:46:37.381Z,44.22
2017-12-25T12:49:08.841Z,44.06
2017-12-25T12:51:37.844Z,44.33
2017-12-25T12:54:06.910Z,43.85
2017-12-25T12:56:37.873Z,43.90
2017-12-25T12:59:07.639Z,44.21
2017-12-25T13:01:36.886Z,44.16
2017-12-25T13:04:07.593Z,44.20
2017-12-25T13:06:37.714Z,44.65
2017-12-25T13:09:06.839Z,44.91
2017-12-25T13:11:36.233Z,45.12
2017-12-25T13:14:07.420Z,45.29
2017-12-25T13:19:12.805Z,44.74
2017-12-25T13:21:41.853Z,45.03
2017-12-25T13:24:13.818Z,45.01
2017-12-25T13:26:43.132Z,45.09
2017-12-25T13:29:12.163Z,45.48
2017-12-25T13:31:42.797Z,45.65
2017-12-25T13:34:12.673Z,45.74
2017-12-25T13:36:42.634Z,45.98
2017-12-25T13:39:11.712Z,46.25
2017-12-25T13:41:40.712Z,46.21
2017-12-25T13:44:09.820Z,45.97
2017-12-25T13:46:40.658Z,46.40
2017-12-25T13:49:09.894Z,46.62
2017-12-25T13:51:40.277Z,47.16
2017-12-25T13:54:09.338Z,47.40
2017-12-25T13:56:38.421Z,47.21
2017-12-25T13:59:07.370Z,47.25
2017-12-25T14:01:37.525Z,47.21
2017-12-25T14:04:06.524Z,46.76
2017-12-25T14:06:35.509Z,46.85
2017-12-25T14:11:39.812Z,47.10
2017-12-25T14:14:09.009Z,46.88
2017-12-25T14:16:38.843Z,46.85
2017-12-25T14:19:07.750Z,47.08
2017-12-25T14:21:36.644Z,47.29
2017-12-25T14:24:06.764Z,47.66
2017-12-25T14:26:35.823Z,47.97
2017-12-25T14:29:05.064Z,48.17
2017-12-25T14:31:34.882Z,48.53
2017-12-25T14:34:04.093Z,48.66
2017-12-25T14:36:33.066Z,48.80
2017-12-25T14:39:02.121Z,49.03
2017-12-25T14:41:31.268Z,49.21
2017-12-25T14:44:00.452Z,49.38
2017-12-25T14:46:30.328Z,48.97
2017-12-25T14:48:59.476Z,48.46
2017-12-25T14:51:31.291Z,48.75
2017-12-25T14:54:01.420Z,48.68
2017-12-25T14:56:30.404Z,47.84
2017-12-25T14:59:00.320Z,47.59
2017-12-25T15:01:29.625Z,47.36
2017-12-25T15:03:58.716Z,47.28
2017-12-25T15:06:29.464Z,47.49
2017-12-25T15:08:59.774Z,47.72
2017-12-25T15:11:29.080Z,47.76
2017-12-25T15:14:01.235Z,48.01
2017-12-25T15:16:30.379Z,48.26
2017-12-25T15:18:59.368Z,48.51
2017-12-25T15:21:29.408Z,48.59
2017-12-25T15:23:59.308Z,49.19
2017-12-25T15:26:29.281Z,49.06
2017-12-25T15:29:00.840Z,50.07
2017-12-25T15:31:30.039Z,50.01
2017-12-25T15:33:59.890Z,50.06
2017-12-25T15:36:28.946Z,50.87
2017-12-25T15:38:58.248Z,51.63
2017-12-25T15:41:27.848Z,50.60
2017-12-25T15:43:57.850Z,52.00
2017-12-25T15:46:27.942Z,52.17
2017-12-25T15:48:56.821Z,52.85
2017-12-25T15:51:28.777Z,52.89
2017-12-25T15:53:58.248Z,53.40
2017-12-25T15:56:27.243Z,53.31
2017-12-25T15:58:59.660Z,54.20
2017-12-25T16:01:29.433Z,54.52
2017-12-25T16:03:58.936Z,54.18
2017-12-25T16:06:28.754Z,53.98
2017-12-25T16:08:58.398Z,53.89
2017-12-25T16:11:28.442Z,55.28
2017-12-25T16:13:59.145Z,56.94
2017-12-25T16:16:29.189Z,57.90
2017-12-25T16:18:58.456Z,58.19
2017-12-25T16:21:29.304Z,58.68
2017-12-25T16:23:58.380Z,58.79
2017-12-25T16:26:28.380Z,58.80
2017-12-25T16:28:57.664Z,58.67
2017-12-25T16:31:27.913Z,58.82
2017-12-25T16:33:57.019Z,59.42
2017-12-25T16:36:28.215Z,59.79
2017-12-25T16:38:58.168Z,60.29
2017-12-25T16:41:28.319Z,61.44
2017-12-25T16:43:59.298Z,62.28
2017-12-25T16:46:29.001Z,62.82
2017-12-25T16:48:58.041Z,63.45
2017-12-25T16:51:28.185Z,63.63
2017-12-25T16:53:57.700Z,64.01
2017-12-25T16:56:26.692Z,64.36
2017-12-25T16:58:55.782Z,64.40
2017-12-25T17:01:24.856Z,64.70
2017-12-25T17:03:53.931Z,65.53
2017-12-25T17:06:25.336Z,65.90
2017-12-25T17:08:54.377Z,65.73
2017-12-25T17:11:24.260Z,65.96
2017-12-25T17:13:55.001Z,66.02
2017-12-25T17:16:24.238Z,65.95
2017-12-25T17:18:54.236Z,66.61
2017-12-25T17:23:58.420Z,67.27
2017-12-25T17:26:28.289Z,65.99
2017-12-25T17:28:58.144Z,65.28
2017-12-25T17:31:28.014Z,64.24
2017-12-25T17:33:57.862Z,63.71
2017-12-25T17:36:27.176Z,63.44
2017-12-25T17:38:56.688Z,63.65
2017-12-25T17:41:26.379Z,63.08
2017-12-25T17:43:56.262Z,62.89
2017-12-25T17:46:25.469Z,62.39
2017-12-25T17:48:54.955Z,61.86
2017-12-25T17:51:24.276Z,61.84
2017-12-25T17:53:53.333Z,61.49
2017-12-25T17:56:22.458Z,61.53
2017-12-25T17:58:51.597Z,61.28
2017-12-25T18:01:21.378Z,60.96
2017-12-25T18:03:50.372Z,60.70
2017-12-25T18:06:19.557Z,60.61
2017-12-25T18:08:48.449Z,61.05
2017-12-25T18:11:18.469Z,61.05
2017-12-25T18:13:48.531Z,61.06
2017-12-25T18:16:17.693Z,61.38
2017-12-25T18:18:47.590Z,61.96
2017-12-25T18:21:19.356Z,62.37
2017-12-25T18:23:49.241Z,62.58
2017-12-25T18:26:19.801Z,62.75
2017-12-25T18:28:50.746Z,63.06
2017-12-25T18:31:19.738Z,63.35
2017-12-25T18:33:49.589Z,63.88
2017-12-25T18:36:20.285Z,64.18
2017-12-25T18:38:49.224Z,64.16
2017-12-25T18:41:18.124Z,63.90
2017-12-25T18:43:47.169Z,63.64
2017-12-25T18:46:16.564Z,63.39
2017-12-25T18:48:45.564Z,62.99
2017-12-25T18:51:15.475Z,62.51
2017-12-25T18:53:45.440Z,62.34
2017-12-25T18:56:14.423Z,62.29
2017-12-25T18:58:44.296Z,62.43
2017-12-25T19:01:14.934Z,62.63
2017-12-25T19:03:43.932Z,62.46
2017-12-25T19:06:13.210Z,62.70
2017-12-25T19:08:42.181Z,63.17
2017-12-25T19:11:11.140Z,63.51
2017-12-25T19:13:40.915Z,63.96
2017-12-25T19:16:09.860Z,63.93
2017-12-25T19:18:38.838Z,64.23
2017-12-25T19:21:08.112Z,64.67
2017-12-25T19:23:37.356Z,64.72
2017-12-25T19:26:07.184Z,65.18
2017-12-25T19:28:36.981Z,65.58
2017-12-25T19:31:06.850Z,65.81
2017-12-25T19:33:35.945Z,66.17
2017-12-25T19:36:04.980Z,66.59
2017-12-25T19:38:35.060Z,66.68
2017-12-25T19:41:04.954Z,66.66
2017-12-25T19:43:34.830Z,66.30
2017-12-25T19:46:06.792Z,65.57
2017-12-25T19:48:35.838Z,65.69
2017-12-25T19:51:04.822Z,65.75
2017-12-25T19:53:33.773Z,65.85
2017-12-25T19:56:04.613Z,65.64
2017-12-25T19:58:36.207Z,66.06
2017-12-25T20:01:05.395Z,66.41
2017-12-25T20:03:34.398Z,66.68
2017-12-25T20:06:03.391Z,67.06
2017-12-25T20:08:32.389Z,67.27
2017-12-25T20:11:01.438Z,67.12
2017-12-25T20:13:32.072Z,67.82
2017-12-25T20:16:02.707Z,68.07
2017-12-25T20:18:33.543Z,68.47
2017-12-25T20:21:04.995Z,68.31
2017-12-25T20:23:34.845Z,68.37
2017-12-25T20:26:03.902Z,68.31
2017-12-25T20:28:36.076Z,67.59
2017-12-25T20:31:05.169Z,67.61
2017-12-25T20:33:35.993Z,67.55
2017-12-25T20:36:05.819Z,67.21
2017-12-25T20:38:34.857Z,66.52
2017-12-25T20:41:03.959Z,66.84
2017-12-25T20:46:08.262Z,67.71
2017-12-25T20:48:37.238Z,67.08
2017-12-25T20:51:06.233Z,66.54
2017-12-25T20:53:36.259Z,66.35
2017-12-25T20:56:05.344Z,66.43
2017-12-25T20:58:34.297Z,66.31
2017-12-25T21:01:06.199Z,66.09
2017-12-25T21:03:35.243Z,66.44
2017-12-25T21:06:04.224Z,66.62
2017-12-25T21:08:34.101Z,66.48
2017-12-25T21:11:03.402Z,66.61
2017-12-25T21:13:32.515Z,66.75
2017-12-25T21:16:01.564Z,66.59
2017-12-25T21:18:34.540Z,67.33
2017-12-25T21:21:03.574Z,67.65
2017-12-25T21:23:32.612Z,67.87
2017-12-25T21:26:03.504Z,67.24
2017-12-25T21:28:33.319Z,67.39
2017-12-25T21:31:03.645Z,67.31
2017-12-25T21:33:33.605Z,67.45
2017-12-25T21:36:02.716Z,67.80
2017-12-25T21:38:31.689Z,67.13
2017-12-25T21:41:01.773Z,66.94
2017-12-25T21:43:33.605Z,68.06
2017-12-25T21:46:03.592Z,68.74
2017-12-25T21:48:32.682Z,68.96
2017-12-25T21:51:01.634Z,69.71
2017-12-25T21:53:32.575Z,68.52
2017-12-25T21:56:01.517Z,68.76
2017-12-25T21:58:30.680Z,70.30
2017-12-25T22:01:01.708Z,71.38
2017-12-25T22:03:31.620Z,71.03
2017-12-25T22:06:03.309Z,70.62
2017-12-25T22:08:34.709Z,69.74
2017-12-25T22:11:03.790Z,70.81
2017-12-25T22:13:33.896Z,71.43
2017-12-25T22:16:03.087Z,71.93
2017-12-25T22:18:32.188Z,73.06
2017-12-25T22:21:01.583Z,73.31
2017-12-25T22:23:31.356Z,73.32
2017-12-25T22:26:00.450Z,73.36
2017-12-25T22:28:32.136Z,73.94
2017-12-25T22:31:01.140Z,71.66
2017-12-25T22:33:30.148Z,70.45
2017-12-25T22:36:01.269Z,71.84
2017-12-25T22:38:30.354Z,72.28
2017-12-25T22:41:00.551Z,72.72
2017-12-25T22:43:36.615Z,73.04
2017-12-25T22:46:06.482Z,73.05
2017-12-25T22:48:36.652Z,73.22
2017-12-25T22:51:09.733Z,72.80
2017-12-25T22:53:38.679Z,73.62
2017-12-25T22:56:07.627Z,73.27
2017-12-25T22:58:40.453Z,73.91
2017-12-25T23:01:15.566Z,73.00
2017-12-25T23:03:44.657Z,73.11
2017-12-25T23:06:14.624Z,74.18
2017-12-25T23:08:43.719Z,74.10
2017-12-25T23:13:50.034Z,74.63
2017-12-25T23:16:19.148Z,74.16
2017-12-25T23:18:49.310Z,74.66
2017-12-25T23:21:19.245Z,74.91
2017-12-25T23:23:48.371Z,75.04
2017-12-25T23:26:18.234Z,76.46
2017-12-25T23:28:47.287Z,78.19
2017-12-25T23:31:16.431Z,75.60
2017-12-25T23:33:48.350Z,74.57
2017-12-25T23:36:17.545Z,74.01
2017-12-25T23:38:47.270Z,75.22
2017-12-25T23:41:19.324Z,75.59
2017-12-25T23:43:49.379Z,75.44
2017-12-25T23:46:18.235Z,75.57
2017-12-25T23:48:49.072Z,75.60
2017-12-25T23:51:17.958Z,76.44
2017-12-25T23:53:48.832Z,74.97
2017-12-25T23:56:18.678Z,74.53
2017-12-25T23:58:47.706Z,75.08
